createdAt,value
2022-09-07T00:02:05.336Z,14.90
2022-09-07T00:04:32.146Z,14.90
2022-09-07T00:06:58.982Z,14.88
2022-09-07T00:09:25.725Z,15.00
2022-09-07T00:11:52.467Z,14.89
2022-09-07T00:14:19.245Z,14.93
2022-09-07T00:16:46.085Z,14.88
2022-09-07T00:19:13.322Z,14.86
2022-09-07T00:21:40.203Z,14.89
2022-09-07T00:24:07.007Z,14.82
2022-09-07T00:26:33.766Z,14.81
2022-09-07T00:29:02.238Z,14.83
2022-09-07T00:31:30.575Z,14.69
2022-09-07T00:34:00.665Z,14.80
2022-09-07T00:36:27.842Z,14.77
2022-09-07T00:38:54.868Z,14.76
2022-09-07T00:41:23.233Z,14.74
2022-09-07T00:43:53.285Z,14.80
2022-09-07T00:46:36.830Z,14.75
2022-09-07T00:49:18.168Z,14.77
2022-09-07T00:51:55.020Z,14.78
2022-09-07T00:54:28.067Z,14.74
2022-09-07T00:56:55.728Z,14.79
2022-09-07T00:59:27.182Z,14.78
2022-09-07T01:01:54.311Z,14.74
2022-09-07T01:04:23.050Z,14.71
2022-09-07T01:06:50.192Z,14.68
2022-09-07T01:09:19.908Z,14.70
2022-09-07T01:11:51.039Z,14.74
2022-09-07T01:14:26.348Z,14.79
2022-09-07T01:17:08.130Z,14.82
2022-09-07T01:19:53.155Z,14.84
2022-09-07T01:23:13.859Z,14.84
2022-09-07T01:26:18.147Z,14.90
2022-09-07T01:28:49.545Z,14.92
2022-09-07T01:31:16.135Z,14.96
2022-09-07T01:33:59.766Z,14.92
2022-09-07T01:36:29.008Z,14.98
2022-09-07T01:39:02.605Z,14.97
2022-09-07T01:41:59.155Z,14.97
2022-09-07T01:45:01.132Z,15.00
2022-09-07T01:47:57.063Z,15.02
2022-09-07T01:50:29.892Z,14.87
2022-09-07T01:53:01.547Z,14.89
2022-09-07T01:55:48.682Z,14.89
2022-09-07T01:58:38.456Z,14.89
2022-09-07T02:01:12.518Z,14.93
2022-09-07T02:03:46.306Z,14.82
2022-09-07T02:06:15.685Z,14.84
2022-09-07T02:09:05.559Z,14.83
2022-09-07T02:11:37.683Z,14.90
2022-09-07T02:14:14.675Z,14.83
2022-09-07T02:16:58.428Z,14.84
2022-09-07T02:19:29.569Z,14.84
2022-09-07T02:22:04.209Z,14.81
2022-09-07T02:24:37.799Z,14.78
2022-09-07T02:27:09.793Z,14.78
2022-09-07T02:29:36.661Z,14.82
2022-09-07T02:32:03.838Z,14.76
2022-09-07T02:34:31.827Z,14.80
2022-09-07T02:37:02.156Z,14.78
2022-09-07T02:39:29.368Z,14.86
2022-09-07T02:41:56.175Z,14.81
2022-09-07T02:44:27.913Z,14.77
2022-09-07T02:47:00.439Z,14.76
2022-09-07T02:49:54.150Z,14.79
2022-09-07T02:52:39.086Z,14.98
2022-09-07T02:55:23.355Z,14.79
2022-09-07T02:58:12.436Z,14.73
2022-09-07T03:00:51.701Z,14.79
2022-09-07T03:03:47.458Z,14.83
2022-09-07T03:06:28.351Z,14.86
2022-09-07T03:08:58.414Z,14.81
2022-09-07T03:11:25.907Z,14.73
2022-09-07T03:13:52.786Z,14.72
2022-09-07T03:16:19.624Z,14.74
2022-09-07T03:18:46.487Z,14.74
2022-09-07T03:21:13.232Z,14.79
2022-09-07T03:23:39.920Z,14.78
2022-09-07T03:26:06.814Z,14.80
2022-09-07T03:28:33.568Z,14.76
2022-09-07T03:31:02.142Z,14.77
2022-09-07T03:33:28.966Z,14.79
2022-09-07T03:36:02.484Z,14.82
2022-09-07T03:38:30.728Z,14.87
2022-09-07T03:41:02.142Z,14.90
2022-09-07T03:43:29.824Z,14.99
2022-09-07T03:46:01.368Z,15.08
2022-09-07T03:48:31.531Z,14.92
2022-09-07T03:51:09.619Z,14.90
2022-09-07T03:53:39.285Z,14.86
2022-09-07T03:56:09.038Z,14.87
2022-09-07T03:58:36.414Z,14.87
2022-09-07T04:01:11.318Z,14.89
2022-09-07T04:03:39.598Z,14.81
2022-09-07T04:06:06.451Z,14.85
2022-09-07T04:08:34.791Z,14.81
2022-09-07T04:11:04.071Z,14.75
2022-09-07T04:13:31.884Z,14.73
2022-09-07T04:15:58.563Z,14.67
2022-09-07T04:18:25.686Z,14.61
2022-09-07T04:20:52.442Z,14.59
2022-09-07T04:23:19.587Z,14.64
2022-09-07T04:25:50.587Z,14.61
2022-09-07T04:28:18.696Z,14.69
2022-09-07T04:30:45.972Z,14.76
2022-09-07T04:33:13.727Z,14.78
2022-09-07T04:35:41.883Z,14.77
2022-09-07T04:38:14.289Z,14.81
2022-09-07T04:40:41.492Z,14.82
2022-09-07T04:43:09.612Z,14.81
2022-09-07T04:45:37.405Z,14.78
2022-09-07T04:48:04.939Z,14.74
2022-09-07T04:50:31.975Z,14.71
2022-09-07T04:52:58.648Z,14.64
2022-09-07T04:55:25.405Z,14.59
2022-09-07T04:57:52.112Z,14.55
2022-09-07T05:00:19.575Z,14.50
2022-09-07T05:02:46.374Z,14.52
2022-09-07T05:05:13.361Z,14.51
2022-09-07T05:07:40.121Z,14.52
2022-09-07T05:10:07.114Z,14.52
2022-09-07T05:12:33.816Z,14.49
2022-09-07T05:15:01.649Z,14.54
2022-09-07T05:17:31.042Z,14.52
2022-09-07T05:19:58.572Z,14.54
2022-09-07T05:22:25.453Z,14.53
2022-09-07T05:24:52.193Z,14.49
2022-09-07T05:27:19.163Z,14.46
2022-09-07T05:30:03.842Z,14.46
2022-09-07T05:32:32.268Z,14.40
2022-09-07T05:34:58.934Z,14.41
2022-09-07T05:37:25.844Z,14.37
2022-09-07T05:39:56.890Z,14.40
2022-09-07T05:42:23.904Z,14.41
2022-09-07T05:44:50.608Z,14.40
2022-09-07T05:47:17.337Z,14.59
2022-09-07T05:49:44.085Z,14.50
2022-09-07T05:52:10.889Z,14.49
2022-09-07T05:54:37.606Z,14.51
2022-09-07T05:57:04.697Z,14.46
2022-09-07T05:59:31.429Z,14.46
2022-09-07T06:01:58.332Z,14.44
2022-09-07T06:04:25.096Z,14.46
2022-09-07T06:07:20.123Z,14.43
2022-09-07T06:12:25.893Z,14.43
2022-09-07T06:14:52.602Z,14.42
2022-09-07T06:17:19.722Z,14.42
2022-09-07T06:19:46.473Z,14.43
2022-09-07T06:22:13.380Z,14.45
2022-09-07T06:24:40.132Z,14.45
2022-09-07T06:27:06.891Z,14.42
2022-09-07T06:29:33.540Z,14.42
2022-09-07T06:34:47.016Z,14.39
2022-09-07T06:37:14.087Z,14.38
2022-09-07T06:39:40.903Z,14.39
2022-09-07T06:42:07.605Z,14.37
2022-09-07T06:44:41.804Z,14.42
2022-09-07T06:47:08.545Z,14.38
2022-09-07T06:49:35.266Z,14.40
2022-09-07T06:52:02.225Z,14.36
2022-09-07T06:57:16.255Z,14.20
2022-09-07T06:59:42.940Z,14.15
2022-09-07T07:02:11.543Z,14.13
2022-09-07T07:04:41.143Z,14.13
2022-09-07T07:07:13.695Z,14.11
2022-09-07T07:09:41.643Z,14.04
2022-09-07T07:12:09.542Z,14.09
2022-09-07T07:14:39.734Z,14.06
2022-09-07T07:17:09.706Z,14.05
2022-09-07T07:19:36.449Z,14.08
2022-09-07T07:24:50.126Z,14.07
2022-09-07T07:27:17.629Z,14.05
2022-09-07T07:29:45.328Z,14.07
2022-09-07T07:32:12.010Z,14.05
2022-09-07T07:34:38.790Z,14.13
2022-09-07T07:37:05.473Z,14.12
2022-09-07T07:42:18.843Z,14.08
2022-09-07T07:44:45.624Z,14.13
2022-09-07T07:47:12.434Z,14.15
2022-09-07T07:49:39.060Z,14.10
2022-09-07T07:54:53.734Z,14.08
2022-09-07T07:57:20.476Z,14.06
2022-09-07T07:59:47.134Z,14.03
2022-09-07T08:02:16.296Z,14.04
2022-09-07T08:04:43.402Z,14.02
2022-09-07T08:07:12.081Z,13.93
2022-09-07T08:09:43.785Z,14.00
2022-09-07T08:12:16.764Z,13.97
2022-09-07T08:14:43.932Z,13.91
2022-09-07T08:17:13.207Z,14.00
2022-09-07T08:19:40.354Z,14.06
2022-09-07T08:22:08.810Z,14.17
2022-09-07T08:24:35.584Z,14.33
2022-09-07T08:27:02.625Z,14.60
2022-09-07T08:29:33.564Z,15.02
2022-09-07T08:32:02.617Z,15.14
2022-09-07T08:34:29.384Z,15.88
2022-09-07T08:36:56.085Z,16.27
2022-09-07T08:39:22.759Z,16.17
2022-09-07T08:41:55.534Z,15.87
2022-09-07T08:44:27.298Z,15.51
2022-09-07T08:47:08.810Z,15.41
2022-09-07T08:49:57.293Z,15.56
2022-09-07T08:52:34.074Z,15.62
2022-09-07T08:55:14.372Z,15.70
2022-09-07T08:57:47.807Z,15.60
2022-09-07T09:00:17.720Z,15.91
2022-09-07T09:02:45.639Z,16.04
2022-09-07T09:05:53.488Z,15.97
2022-09-07T09:08:31.997Z,15.71
2022-09-07T09:11:01.597Z,15.63
2022-09-07T09:13:46.532Z,15.90
2022-09-07T09:16:37.986Z,15.73
2022-09-07T09:19:16.832Z,15.73
2022-09-07T09:21:43.744Z,15.59
2022-09-07T09:24:21.846Z,15.59
2022-09-07T09:26:56.632Z,15.81
2022-09-07T09:29:23.996Z,15.89
2022-09-07T09:31:50.853Z,16.07
2022-09-07T09:34:23.634Z,15.96
2022-09-07T09:36:56.590Z,16.20
2022-09-07T09:39:33.503Z,16.56
2022-09-07T09:42:24.349Z,16.72
2022-09-07T09:44:52.539Z,17.02
2022-09-07T09:47:30.184Z,17.22
2022-09-07T09:52:29.131Z,17.54
2022-09-07T09:53:04.499Z,17.31
2022-09-07T09:55:36.100Z,17.59
2022-09-07T10:01:25.279Z,17.51
2022-09-07T10:06:20.812Z,16.85
2022-09-07T10:09:05.370Z,16.75
2022-09-07T10:14:44.234Z,16.36
2022-09-07T10:17:21.802Z,16.10
2022-09-07T10:19:49.647Z,15.99
2022-09-07T10:22:33.523Z,15.88
2022-09-07T10:25:01.359Z,15.85
2022-09-07T10:27:37.328Z,15.83
2022-09-07T10:30:15.262Z,15.77
2022-09-07T10:32:48.823Z,15.65
2022-09-07T10:35:26.005Z,15.61
2022-09-07T10:38:11.546Z,15.58
2022-09-07T10:40:44.664Z,15.57
2022-09-07T10:43:23.784Z,15.57
2022-09-07T10:46:12.362Z,15.54
2022-09-07T10:49:03.821Z,15.64
2022-09-07T10:51:43.928Z,15.83
2022-09-07T10:54:30.514Z,16.00
2022-09-07T10:57:17.029Z,15.96
2022-09-07T11:00:11.109Z,16.00
2022-09-07T11:05:54.845Z,15.97
2022-09-07T11:08:21.483Z,16.01
2022-09-07T11:10:48.084Z,16.06
2022-09-07T11:13:22.344Z,16.11
2022-09-07T11:15:54.647Z,16.17
2022-09-07T11:18:30.633Z,16.24
2022-09-07T11:21:01.919Z,16.04
2022-09-07T11:23:52.349Z,16.15
2022-09-07T11:26:51.802Z,16.21
2022-09-07T11:29:29.468Z,16.25
2022-09-07T11:32:09.762Z,16.29
2022-09-07T11:34:39.243Z,16.45
2022-09-07T11:37:34.931Z,16.70
2022-09-07T11:40:41.907Z,16.62
2022-09-07T11:43:24.066Z,16.76
2022-09-07T11:46:12.593Z,17.07
2022-09-07T11:48:49.143Z,17.03
2022-09-07T11:51:31.255Z,17.12
2022-09-07T11:54:06.637Z,17.29
2022-09-07T11:56:38.371Z,17.33
2022-09-07T11:59:18.230Z,17.64
2022-09-07T12:02:02.080Z,17.61
2022-09-07T12:04:56.560Z,17.66
2022-09-07T12:07:47.177Z,17.15
2022-09-07T12:10:31.750Z,17.09
2022-09-07T12:13:22.942Z,16.99
2022-09-07T12:15:58.034Z,16.88
2022-09-07T12:18:46.672Z,17.05
2022-09-07T12:21:42.862Z,16.93
2022-09-07T12:24:40.961Z,17.01
2022-09-07T12:27:19.883Z,17.16
2022-09-07T12:30:11.248Z,16.92
2022-09-07T12:32:55.399Z,17.25
2022-09-07T12:35:28.800Z,16.96
2022-09-07T12:37:56.428Z,16.99
2022-09-07T12:40:29.159Z,17.08
2022-09-07T12:43:13.954Z,17.03
2022-09-07T12:45:40.626Z,16.77
2022-09-07T12:48:16.358Z,16.84
2022-09-07T12:50:55.189Z,16.77
2022-09-07T12:53:40.602Z,16.89
2022-09-07T12:56:44.965Z,16.81
2022-09-07T12:59:36.583Z,16.92
2022-09-07T13:02:24.852Z,16.94
2022-09-07T13:05:33.515Z,16.94
2022-09-07T13:08:09.591Z,16.83
2022-09-07T13:10:39.560Z,16.93
2022-09-07T13:14:01.712Z,16.76
2022-09-07T13:16:06.143Z,16.90
2022-09-07T13:18:35.958Z,16.94
2022-09-07T13:21:08.939Z,17.09
2022-09-07T13:23:40.456Z,16.93
2022-09-07T13:26:10.706Z,17.05
2022-09-07T13:29:00.898Z,16.97
2022-09-07T13:31:33.612Z,16.94
2022-09-07T13:34:00.589Z,16.84
2022-09-07T13:36:47.675Z,16.79
2022-09-07T13:39:18.745Z,16.98
2022-09-07T13:41:52.331Z,16.88
2022-09-07T13:44:26.920Z,17.08
2022-09-07T13:47:18.163Z,16.95
2022-09-07T13:50:15.555Z,17.17
2022-09-07T13:52:58.552Z,16.94
2022-09-07T13:55:31.051Z,16.75
2022-09-07T13:58:17.943Z,16.78
2022-09-07T14:01:00.913Z,16.82
2022-09-07T14:03:33.949Z,16.85
2022-09-07T14:06:26.873Z,16.89
2022-09-07T14:08:56.348Z,16.79
2022-09-07T14:11:47.921Z,16.80
2022-09-07T14:14:32.838Z,16.81
2022-09-07T14:16:59.619Z,16.87
2022-09-07T14:19:41.588Z,16.86
2022-09-07T14:22:11.335Z,16.90
2022-09-07T14:24:55.912Z,16.90
2022-09-07T14:27:24.074Z,17.06
2022-09-07T14:29:51.778Z,17.08
2022-09-07T14:32:24.077Z,16.92
2022-09-07T14:34:51.477Z,16.90
2022-09-07T14:37:21.227Z,17.06
2022-09-07T14:39:50.115Z,16.83
2022-09-07T14:42:22.886Z,16.89
2022-09-07T14:44:50.253Z,17.11
2022-09-07T14:47:30.847Z,16.74
2022-09-07T14:50:06.086Z,16.71
2022-09-07T14:52:43.369Z,16.65
2022-09-07T14:55:35.190Z,16.78
2022-09-07T14:58:08.894Z,16.79
2022-09-07T15:00:35.912Z,16.69
2022-09-07T15:03:25.512Z,16.72
2022-09-07T15:05:52.272Z,16.61
2022-09-07T15:08:40.810Z,16.72
2022-09-07T15:14:02.548Z,16.56
2022-09-07T15:16:32.335Z,16.61
2022-09-07T15:19:17.104Z,16.63
2022-09-07T15:21:44.908Z,16.66
2022-09-07T15:24:12.086Z,16.57
2022-09-07T15:29:28.697Z,16.35
2022-09-07T15:32:03.515Z,16.29
2022-09-07T15:34:32.367Z,16.20
2022-09-07T15:37:00.849Z,16.22
2022-09-07T15:39:29.975Z,16.25
2022-09-07T15:41:58.155Z,16.28
2022-09-07T15:44:28.493Z,16.28
2022-09-07T15:49:49.155Z,16.39
2022-09-07T15:52:17.828Z,16.27
2022-09-07T15:54:44.761Z,16.36
2022-09-07T15:59:58.775Z,16.38
2022-09-07T16:05:12.717Z,16.40
2022-09-07T16:10:31.142Z,16.29
2022-09-07T16:13:02.835Z,16.36
2022-09-07T16:15:45.199Z,16.48
2022-09-07T16:18:16.449Z,16.57
2022-09-07T16:20:43.805Z,16.41
2022-09-07T16:23:13.919Z,16.32
2022-09-07T16:25:42.366Z,16.26
2022-09-07T16:28:09.767Z,16.34
2022-09-07T16:30:39.488Z,16.35
2022-09-07T16:33:06.552Z,16.43
2022-09-07T16:35:33.302Z,16.40
2022-09-07T16:40:47.023Z,16.22
2022-09-07T16:43:13.690Z,16.28
2022-09-07T16:48:36.550Z,16.49
2022-09-07T16:51:05.025Z,16.35
2022-09-07T16:53:34.310Z,16.29
2022-09-07T16:56:09.577Z,16.28
2022-09-07T16:58:38.854Z,16.41
2022-09-07T17:01:07.572Z,16.45
2022-09-07T17:03:36.213Z,16.10
2022-09-07T17:06:04.807Z,16.03
2022-09-07T17:08:33.199Z,16.01
2022-09-07T17:11:01.908Z,16.12
2022-09-07T17:13:30.328Z,15.99
2022-09-07T17:16:12.046Z,16.17
2022-09-07T17:22:16.289Z,15.99
2022-09-07T17:30:02.711Z,15.99
2022-09-07T17:36:30.578Z,16.09
2022-09-07T17:39:16.283Z,16.15
2022-09-07T17:41:44.117Z,16.24
2022-09-07T17:44:11.321Z,16.00
2022-09-07T17:46:38.113Z,16.05
2022-09-07T17:49:08.043Z,15.99
2022-09-07T17:51:35.874Z,15.90
2022-09-07T17:54:09.704Z,15.99
2022-09-07T17:56:37.438Z,15.84
2022-09-07T18:01:53.775Z,15.71
2022-09-07T18:04:21.206Z,15.92
2022-09-07T18:06:48.130Z,15.76
2022-09-07T18:09:15.831Z,15.68
2022-09-07T18:11:45.983Z,15.66
2022-09-07T18:14:14.649Z,15.59
2022-09-07T18:16:43.449Z,15.58
2022-09-07T18:19:11.278Z,15.55
2022-09-07T18:21:41.200Z,15.58
2022-09-07T18:24:22.934Z,15.70
2022-09-07T18:26:52.641Z,15.54
2022-09-07T18:29:32.849Z,15.53
2022-09-07T18:32:08.051Z,15.56
2022-09-07T18:34:36.623Z,15.52
2022-09-07T18:37:03.529Z,15.51
2022-09-07T18:39:30.315Z,15.46
2022-09-07T18:41:57.224Z,15.50
2022-09-07T18:47:21.479Z,15.44
2022-09-07T18:49:50.354Z,15.47
2022-09-07T18:55:07.065Z,15.40
2022-09-07T18:57:34.287Z,15.32
2022-09-07T19:00:01.171Z,15.25
2022-09-07T19:02:27.965Z,15.21
2022-09-07T19:07:41.431Z,15.24
2022-09-07T19:10:08.393Z,15.12
2022-09-07T19:12:35.093Z,15.13
2022-09-07T19:15:01.772Z,15.12
2022-09-07T19:17:28.550Z,15.07
2022-09-07T19:19:55.266Z,15.26
2022-09-07T19:22:22.010Z,15.31
2022-09-07T19:24:50.255Z,15.12
2022-09-07T19:27:17.006Z,15.13
2022-09-07T19:29:43.788Z,15.06
2022-09-07T19:32:13.048Z,15.14
2022-09-07T19:34:42.154Z,15.08
2022-09-07T19:37:11.195Z,15.01
2022-09-07T19:39:38.526Z,15.14
2022-09-07T19:42:06.396Z,15.13
2022-09-07T19:44:33.762Z,15.09
2022-09-07T19:47:01.012Z,15.09
2022-09-07T19:49:28.734Z,14.96
2022-09-07T19:51:55.516Z,15.02
2022-09-07T19:54:22.270Z,14.98
2022-09-07T19:56:49.181Z,14.99
2022-09-07T19:59:16.077Z,14.96
2022-09-07T20:01:46.427Z,14.99
2022-09-07T20:04:19.501Z,15.06
2022-09-07T20:06:49.980Z,15.08
2022-09-07T20:09:18.546Z,15.08
2022-09-07T20:11:47.395Z,15.02
2022-09-07T20:14:15.674Z,15.04
2022-09-07T20:16:42.445Z,15.03
2022-09-07T20:19:11.585Z,15.06
2022-09-07T20:21:38.245Z,15.03
2022-09-07T20:24:05.100Z,15.14
2022-09-07T20:26:32.541Z,15.03
2022-09-07T20:29:16.851Z,15.07
2022-09-07T20:31:47.302Z,15.05
2022-09-07T20:34:14.409Z,15.05
2022-09-07T20:36:41.513Z,15.16
2022-09-07T20:39:08.291Z,15.06
2022-09-07T20:41:35.428Z,15.06
2022-09-07T20:44:03.992Z,15.18
2022-09-07T20:46:31.104Z,15.29
2022-09-07T20:48:58.325Z,15.14
2022-09-07T20:51:25.690Z,15.07
2022-09-07T20:53:52.536Z,15.27
2022-09-07T20:56:27.650Z,15.11
2022-09-07T20:59:01.884Z,15.18
2022-09-07T21:01:30.869Z,15.12
2022-09-07T21:03:59.192Z,15.08
2022-09-07T21:06:27.574Z,15.31
2022-09-07T21:08:54.854Z,15.09
2022-09-07T21:11:33.819Z,15.06
2022-09-07T21:14:06.582Z,15.11
2022-09-07T21:16:34.697Z,15.08
2022-09-07T21:19:02.775Z,15.07
2022-09-07T21:21:38.391Z,15.11
2022-09-07T21:24:06.826Z,15.15
2022-09-07T21:26:33.571Z,15.24
2022-09-07T21:29:02.499Z,15.27
2022-09-07T21:31:31.144Z,15.11
2022-09-07T21:34:00.371Z,15.11
2022-09-07T21:36:27.801Z,15.24
2022-09-07T21:38:55.048Z,15.27
2022-09-07T21:41:23.816Z,15.21
2022-09-07T21:43:55.915Z,15.13
2022-09-07T21:46:23.141Z,15.08
2022-09-07T21:48:49.972Z,15.12
2022-09-07T21:51:17.057Z,15.15
2022-09-07T21:53:44.267Z,15.11
2022-09-07T21:56:13.300Z,15.22
2022-09-07T21:58:40.557Z,15.09
2022-09-07T22:01:11.269Z,15.25
2022-09-07T22:03:39.648Z,15.07
2022-09-07T22:06:07.719Z,15.07
2022-09-07T22:08:35.960Z,15.15
2022-09-07T22:11:08.393Z,15.13
2022-09-07T22:13:35.776Z,15.11
2022-09-07T22:16:03.606Z,15.13
2022-09-07T22:18:31.088Z,15.11
2022-09-07T22:21:18.285Z,15.31
2022-09-07T22:23:51.983Z,15.15
2022-09-07T22:26:24.561Z,15.12
2022-09-07T22:28:51.712Z,15.10
2022-09-07T22:31:21.576Z,15.08
2022-09-07T22:33:52.578Z,15.11
2022-09-07T22:36:37.134Z,15.07
2022-09-07T22:39:07.193Z,15.05
2022-09-07T22:41:38.441Z,15.09
2022-09-07T22:44:07.008Z,15.24
2022-09-07T22:46:39.523Z,15.05
2022-09-07T22:49:07.749Z,15.08
2022-09-07T22:51:35.057Z,15.13
2022-09-07T22:54:01.812Z,15.19
2022-09-07T22:56:31.400Z,15.17
2022-09-07T22:59:00.574Z,15.17
2022-09-07T23:01:29.574Z,15.20
2022-09-07T23:03:56.979Z,15.21
2022-09-07T23:06:28.647Z,15.14
2022-09-07T23:08:57.088Z,15.21
2022-09-07T23:11:24.694Z,15.25
2022-09-07T23:13:56.172Z,15.22
2022-09-07T23:16:23.527Z,15.20
2022-09-07T23:18:50.943Z,15.15
2022-09-07T23:21:18.051Z,15.19
2022-09-07T23:23:50.404Z,15.22
2022-09-07T23:26:17.251Z,15.19
2022-09-07T23:28:43.929Z,15.14
2022-09-07T23:31:10.893Z,15.09
2022-09-07T23:33:38.097Z,15.08
2022-09-07T23:36:06.927Z,15.06
2022-09-07T23:38:33.900Z,15.17
2022-09-07T23:41:01.037Z,14.99
2022-09-07T23:43:28.943Z,15.00
2022-09-07T23:45:56.458Z,15.10
2022-09-07T23:48:24.738Z,15.01
2022-09-07T23:50:53.025Z,15.03
2022-09-07T23:53:21.161Z,15.05
2022-09-07T23:55:53.124Z,15.08
2022-09-07T23:58:22.848Z,15.11
